sensor_id;sensor_type;location;lat;lon;timestamp;pressure;altitude;pressure_sealevel;temperature;humidity
62976;BME280;49071;0.000;0.000;2022-08-06T06:08:49;101772.13;;;22.49;42.65
62976;BME280;49071;0.000;0.000;2022-08-06T06:11:50;101766.66;;;22.46;42.52
62976;BME280;49071;0.000;0.000;2022-08-06T06:14:50;101773.53;;;22.54;42.48
62976;BME280;49071;0.000;0.000;2022-08-06T06:17:57;101776.06;;;22.70;42.11
62976;BME280;49071;0.000;0.000;2022-08-06T06:21:01;101775.44;;;22.85;42.10
62976;BME280;49071;0.000;0.000;2022-08-06T06:24:07;101773.25;;;22.43;42.31
62976;BME280;49071;0.000;0.000;2022-08-06T06:27:13;101774.94;;;22.49;42.36
62976;BME280;49071;0.000;0.000;2022-08-06T06:30:41;101773.41;;;22.67;42.45
62976;BME280;49071;0.000;0.000;2022-08-06T06:33:39;101777.94;;;22.64;42.24
62976;BME280;49071;0.000;0.000;2022-08-06T06:36:56;101782.78;;;22.91;42.15
62976;BME280;49071;0.000;0.000;2022-08-06T06:40:09;101794.19;;;22.88;42.14
62976;BME280;49071;0.000;0.000;2022-08-06T06:43:22;101785.28;;;22.89;41.83
62976;BME280;49071;0.000;0.000;2022-08-06T06:52:46;101790.59;;;22.69;42.24
62976;BME280;49071;0.000;0.000;2022-08-06T06:55:50;101795.63;;;22.65;42.43
62976;BME280;49071;0.000;0.000;2022-08-06T06:58:59;101800.31;;;22.68;42.45
62976;BME280;49071;0.000;0.000;2022-08-06T07:02:00;101802.50;;;22.91;41.97
62976;BME280;49071;0.000;0.000;2022-08-06T07:05:02;101808.47;;;22.93;41.90
62976;BME280;49071;0.000;0.000;2022-08-06T07:08:04;101816.09;;;22.93;42.14
62976;BME280;49071;0.000;0.000;2022-08-06T07:11:04;101809.38;;;22.90;41.98
62976;BME280;49071;0.000;0.000;2022-08-06T07:14:05;101815.94;;;22.78;42.43
62976;BME280;49071;0.000;0.000;2022-08-06T07:17:06;101819.88;;;22.80;42.43
62976;BME280;49071;0.000;0.000;2022-08-06T07:20:07;101816.91;;;23.03;42.15
62976;BME280;49071;0.000;0.000;2022-08-06T07:23:08;101823.34;;;23.03;41.81
62976;BME280;49071;0.000;0.000;2022-08-06T07:26:09;101831.00;;;23.03;42.04
62976;BME280;49071;0.000;0.000;2022-08-06T07:29:12;101825.84;;;23.10;41.76
62976;BME280;49071;0.000;0.000;2022-08-06T07:32:14;101832.72;;;23.18;41.78
62976;BME280;49071;0.000;0.000;2022-08-06T07:35:16;101836.94;;;23.23;41.66
62976;BME280;49071;0.000;0.000;2022-08-06T07:38:17;101836.00;;;23.26;41.47
62976;BME280;49071;0.000;0.000;2022-08-06T07:41:18;101834.28;;;23.19;41.85
62976;BME280;49071;0.000;0.000;2022-08-06T07:44:20;101836.50;;;23.15;41.50
62976;BME280;49071;0.000;0.000;2022-08-06T07:47:22;101833.34;;;23.23;41.85
62976;BME280;49071;0.000;0.000;2022-08-06T07:50:25;101841.47;;;23.30;41.52
62976;BME280;49071;0.000;0.000;2022-08-06T07:53:27;101845.06;;;23.39;41.19
62976;BME280;49071;0.000;0.000;2022-08-06T07:56:28;101842.88;;;23.34;41.36
62976;BME280;49071;0.000;0.000;2022-08-06T07:59:29;101844.28;;;23.39;41.47
62976;BME280;49071;0.000;0.000;2022-08-06T08:02:30;101841.31;;;23.33;41.07
62976;BME280;49071;0.000;0.000;2022-08-06T08:05:30;101850.38;;;23.37;40.92
62976;BME280;49071;0.000;0.000;2022-08-06T08:09:01;101857.91;;;23.40;41.14
62976;BME280;49071;0.000;0.000;2022-08-06T08:12:02;101845.97;;;23.46;40.62
62976;BME280;49071;0.000;0.000;2022-08-06T08:15:03;101851.03;;;23.41;40.91
62976;BME280;49071;0.000;0.000;2022-08-06T08:18:04;101859.00;;;23.34;40.57
62976;BME280;49071;0.000;0.000;2022-08-06T08:21:04;101866.22;;;23.44;40.62
62976;BME280;49071;0.000;0.000;2022-08-06T08:24:05;101857.44;;;23.42;40.36
62976;BME280;49071;0.000;0.000;2022-08-06T08:27:06;101857.09;;;23.49;40.40
62976;BME280;49071;0.000;0.000;2022-08-06T08:30:10;101856.63;;;23.51;40.20
62976;BME280;49071;0.000;0.000;2022-08-06T08:33:10;101871.34;;;23.55;40.33
62976;BME280;49071;0.000;0.000;2022-08-06T08:36:11;101874.47;;;23.57;40.38
62976;BME280;49071;0.000;0.000;2022-08-06T08:39:11;101870.56;;;23.54;40.10
62976;BME280;49071;0.000;0.000;2022-08-06T08:42:17;101871.34;;;23.55;40.08
62976;BME280;49071;0.000;0.000;2022-08-06T08:45:17;101876.22;;;23.54;40.03
62976;BME280;49071;0.000;0.000;2022-08-06T08:48:20;101868.38;;;23.58;39.91
62976;BME280;49071;0.000;0.000;2022-08-06T08:51:20;101876.84;;;23.58;39.76
62976;BME280;49071;0.000;0.000;2022-08-06T08:54:22;101862.88;;;23.64;39.58
62976;BME280;49071;0.000;0.000;2022-08-06T08:57:22;101866.00;;;23.66;39.60
62976;BME280;49071;0.000;0.000;2022-08-06T09:00:23;101871.16;;;23.68;39.66
62976;BME280;49071;0.000;0.000;2022-08-06T09:03:23;101856.13;;;23.71;39.48
62976;BME280;49071;0.000;0.000;2022-08-06T09:06:24;101864.41;;;23.65;39.38
62976;BME280;49071;0.000;0.000;2022-08-06T09:09:24;101855.31;;;23.70;39.64
62976;BME280;49071;0.000;0.000;2022-08-06T09:12:26;101863.94;;;23.67;39.62
62976;BME280;49071;0.000;0.000;2022-08-06T09:15:26;101867.09;;;23.69;39.57
62976;BME280;49071;0.000;0.000;2022-08-06T09:18:27;101860.19;;;23.70;38.99
62976;BME280;49071;0.000;0.000;2022-08-06T09:21:27;101860.50;;;23.72;39.07
62976;BME280;49071;0.000;0.000;2022-08-06T09:24:28;101869.28;;;23.74;39.16
62976;BME280;49071;0.000;0.000;2022-08-06T09:27:34;101868.03;;;23.75;38.84
62976;BME280;49071;0.000;0.000;2022-08-06T09:30:35;101854.53;;;23.79;39.25
62976;BME280;49071;0.000;0.000;2022-08-06T09:33:40;101869.44;;;23.79;38.90
62976;BME280;49071;0.000;0.000;2022-08-06T09:36:41;101861.91;;;23.85;38.92
62976;BME280;49071;0.000;0.000;2022-08-06T09:39:42;101872.09;;;23.83;39.00
62976;BME280;49071;0.000;0.000;2022-08-06T09:42:45;101875.69;;;23.83;38.98
62976;BME280;49071;0.000;0.000;2022-08-06T09:45:48;101881.03;;;23.81;38.77
62976;BME280;49071;0.000;0.000;2022-08-06T09:48:58;101876.97;;;23.82;38.78
62976;BME280;49071;0.000;0.000;2022-08-06T09:52:14;101873.66;;;23.84;38.86
62976;BME280;49071;0.000;0.000;2022-08-06T09:55:28;101884.47;;;23.85;38.86
62976;BME280;49071;0.000;0.000;2022-08-06T10:01:29;101882.72;;;23.88;38.46
62976;BME280;49071;0.000;0.000;2022-08-06T10:04:29;101877.25;;;23.84;38.62
62976;BME280;49071;0.000;0.000;2022-08-06T10:07:29;101879.13;;;23.88;38.43
62976;BME280;49071;0.000;0.000;2022-08-06T10:13:38;101876.44;;;23.93;38.27
62976;BME280;49071;0.000;0.000;2022-08-06T10:16:39;101876.91;;;23.92;38.42
62976;BME280;49071;0.000;0.000;2022-08-06T10:19:47;101881.00;;;23.91;38.66
62976;BME280;49071;0.000;0.000;2022-08-06T10:22:53;101873.63;;;23.93;38.45
62976;BME280;49071;0.000;0.000;2022-08-06T10:25:56;101881.13;;;23.96;38.34
62976;BME280;49071;0.000;0.000;2022-08-06T10:29:00;101880.19;;;23.99;38.25
62976;BME280;49071;0.000;0.000;2022-08-06T10:32:02;101878.31;;;23.96;38.37
62976;BME280;49071;0.000;0.000;2022-08-06T10:35:04;101888.81;;;23.96;38.19
62976;BME280;49071;0.000;0.000;2022-08-06T10:38:05;101888.34;;;23.97;37.99
62976;BME280;49071;0.000;0.000;2022-08-06T10:41:08;101884.28;;;23.89;37.37
62976;BME280;49071;0.000;0.000;2022-08-06T10:44:09;101891.50;;;23.90;37.77
62976;BME280;49071;0.000;0.000;2022-08-06T10:47:10;101877.56;;;23.87;37.46
62976;BME280;49071;0.000;0.000;2022-08-06T10:50:11;101882.53;;;23.92;36.93
62976;BME280;49071;0.000;0.000;2022-08-06T10:53:11;101878.16;;;23.91;36.62
62976;BME280;49071;0.000;0.000;2022-08-06T10:56:13;101885.09;;;23.90;36.55
62976;BME280;49071;0.000;0.000;2022-08-06T10:59:14;101884.78;;;23.88;35.95
62976;BME280;49071;0.000;0.000;2022-08-06T11:05:53;101878.00;;;23.94;36.67
62976;BME280;49071;0.000;0.000;2022-08-06T11:08:58;101874.69;;;23.96;36.70
62976;BME280;49071;0.000;0.000;2022-08-06T11:15:38;101866.09;;;23.99;36.69
62976;BME280;49071;0.000;0.000;2022-08-06T11:18:56;101867.16;;;24.02;36.83
62976;BME280;49071;0.000;0.000;2022-08-06T11:21:56;101875.63;;;24.02;36.89
62976;BME280;49071;0.000;0.000;2022-08-06T11:24:57;101875.63;;;24.02;36.71
62976;BME280;49071;0.000;0.000;2022-08-06T11:27:57;101868.25;;;24.04;36.57
62976;BME280;49071;0.000;0.000;2022-08-06T11:31:03;101865.13;;;24.02;36.51
62976;BME280;49071;0.000;0.000;2022-08-06T11:34:05;101865.13;;;24.02;36.66
62976;BME280;49071;0.000;0.000;2022-08-06T11:37:05;101867.63;;;24.00;36.68
62976;BME280;49071;0.000;0.000;2022-08-06T11:40:06;101859.16;;;24.00;36.72
62976;BME280;49071;0.000;0.000;2022-08-06T11:43:07;101846.59;;;24.01;36.84
62976;BME280;49071;0.000;0.000;2022-08-06T11:52:38;101847.41;;;24.02;36.32
62976;BME280;49071;0.000;0.000;2022-08-06T11:59:19;101854.59;;;24.03;36.13
62976;BME280;49071;0.000;0.000;2022-08-06T12:05:38;101862.59;;;24.04;36.24
62976;BME280;49071;0.000;0.000;2022-08-06T12:08:38;101856.47;;;24.06;36.29
62976;BME280;49071;0.000;0.000;2022-08-06T12:11:38;101855.53;;;24.09;36.48
62976;BME280;49071;0.000;0.000;2022-08-06T12:14:40;101854.25;;;24.10;36.36
62976;BME280;49071;0.000;0.000;2022-08-06T12:17:41;101857.56;;;24.09;36.37
62976;BME280;49071;0.000;0.000;2022-08-06T12:20:43;101859.91;;;24.10;36.33
62976;BME280;49071;0.000;0.000;2022-08-06T12:23:43;101847.34;;;24.11;36.47
62976;BME280;49071;0.000;0.000;2022-08-06T12:26:44;101846.56;;;24.11;36.32
62976;BME280;49071;0.000;0.000;2022-08-06T12:29:44;101848.94;;;24.12;36.51
62976;BME280;49071;0.000;0.000;2022-08-06T12:32:44;101841.22;;;24.13;36.27
62976;BME280;49071;0.000;0.000;2022-08-06T12:35:52;101856.13;;;24.13;36.10
62976;BME280;49071;0.000;0.000;2022-08-06T12:38:53;101852.53;;;24.13;36.13
62976;BME280;49071;0.000;0.000;2022-08-06T12:41:53;101842.50;;;24.12;35.97
62976;BME280;49071;0.000;0.000;2022-08-06T12:44:54;101842.00;;;24.13;35.88
62976;BME280;49071;0.000;0.000;2022-08-06T12:48:10;101843.59;;;24.14;36.35
62976;BME280;49071;0.000;0.000;2022-08-06T12:51:11;101830.06;;;24.18;36.26
62976;BME280;49071;0.000;0.000;2022-08-06T12:54:13;101834.78;;;24.21;36.37
62976;BME280;49071;0.000;0.000;2022-08-06T12:57:26;101834.28;;;24.23;36.23
62976;BME280;49071;0.000;0.000;2022-08-06T13:00:27;101844.00;;;24.22;36.40
62976;BME280;49071;0.000;0.000;2022-08-06T13:03:28;101835.84;;;24.24;36.86
62976;BME280;49071;0.000;0.000;2022-08-06T13:06:30;101825.16;;;24.28;36.65
62976;BME280;49071;0.000;0.000;2022-08-06T13:09:33;101828.47;;;24.26;36.77
62976;BME280;49071;0.000;0.000;2022-08-06T13:12:34;101830.22;;;24.24;36.60
62976;BME280;49071;0.000;0.000;2022-08-06T13:15:34;101829.25;;;24.27;36.76
62976;BME280;49071;0.000;0.000;2022-08-06T13:18:35;101829.25;;;24.27;36.50
62976;BME280;49071;0.000;0.000;2022-08-06T13:21:35;101834.09;;;24.26;36.65
62976;BME280;49071;0.000;0.000;2022-08-06T13:24:36;101833.34;;;24.26;36.69
62976;BME280;49071;0.000;0.000;2022-08-06T13:27:36;101830.78;;;24.28;36.60
62976;BME280;49071;0.000;0.000;2022-08-06T13:30:37;101826.88;;;24.25;36.48
62976;BME280;49071;0.000;0.000;2022-08-06T13:33:37;101823.59;;;24.27;36.41
62976;BME280;49071;0.000;0.000;2022-08-06T13:36:39;101818.72;;;24.27;36.64
62976;BME280;49071;0.000;0.000;2022-08-06T13:39:52;101826.72;;;24.29;36.56
62976;BME280;49071;0.000;0.000;2022-08-06T13:42:53;101820.78;;;24.27;36.54
62976;BME280;49071;0.000;0.000;2022-08-06T13:46:03;101819.03;;;24.30;36.62
62976;BME280;49071;0.000;0.000;2022-08-06T13:49:03;101825.94;;;24.28;36.69
62976;BME280;49071;0.000;0.000;2022-08-06T13:52:04;101824.19;;;24.31;36.12
62976;BME280;49071;0.000;0.000;2022-08-06T13:55:04;101825.94;;;24.28;36.40
62976;BME280;49071;0.000;0.000;2022-08-06T13:58:04;101826.88;;;24.25;36.24
62976;BME280;49071;0.000;0.000;2022-08-06T14:01:05;101824.56;;;24.24;36.12
62976;BME280;49071;0.000;0.000;2022-08-06T14:04:05;101826.88;;;24.25;36.42
62976;BME280;49071;0.000;0.000;2022-08-06T14:07:05;101825.63;;;24.26;36.39
62976;BME280;49071;0.000;0.000;2022-08-06T14:10:06;101825.44;;;24.30;36.39
62976;BME280;49071;0.000;0.000;2022-08-06T14:13:07;101819.34;;;24.32;36.12
62976;BME280;49071;0.000;0.000;2022-08-06T14:16:16;101816.97;;;24.30;36.27
62976;BME280;49071;0.000;0.000;2022-08-06T14:19:16;101812.09;;;24.31;36.00
62976;BME280;49071;0.000;0.000;2022-08-06T14:22:17;101825.28;;;24.34;36.36
62976;BME280;49071;0.000;0.000;2022-08-06T14:25:17;101812.91;;;24.31;35.82
62976;BME280;49071;0.000;0.000;2022-08-06T14:28:17;101819.03;;;24.30;35.78
62976;BME280;49071;0.000;0.000;2022-08-06T14:31:18;101816.50;;;24.32;35.58
62976;BME280;49071;0.000;0.000;2022-08-06T14:34:18;101818.06;;;24.33;35.89
62976;BME280;49071;0.000;0.000;2022-08-06T14:37:18;101816.81;;;24.34;35.81
62976;BME280;49071;0.000;0.000;2022-08-06T14:40:19;101812.72;;;24.35;35.46
62976;BME280;49071;0.000;0.000;2022-08-06T14:43:38;101805.31;;;24.37;35.98
62976;BME280;49071;0.000;0.000;2022-08-06T14:46:57;101807.38;;;24.37;35.87
62976;BME280;49071;0.000;0.000;2022-08-06T14:49:57;101804.09;;;24.38;35.84
62976;BME280;49071;0.000;0.000;2022-08-06T14:52:58;101805.63;;;24.39;36.28
62976;BME280;49071;0.000;0.000;2022-08-06T14:55:58;101798.25;;;24.42;36.27
62976;BME280;49071;0.000;0.000;2022-08-06T14:58:58;101798.25;;;24.42;36.21
62976;BME280;49071;0.000;0.000;2022-08-06T15:01:59;101797.00;;;24.43;36.16
62976;BME280;49071;0.000;0.000;2022-08-06T15:04:59;101790.06;;;24.44;36.21
62976;BME280;49071;0.000;0.000;2022-08-06T15:08:00;101794.94;;;24.43;36.84
62976;BME280;49071;0.000;0.000;2022-08-06T15:11:00;101797.28;;;24.45;36.40
62976;BME280;49071;0.000;0.000;2022-08-06T15:14:00;101796.81;;;24.46;36.88
62976;BME280;49071;0.000;0.000;2022-08-06T15:17:01;101803.25;;;24.47;36.73
62976;BME280;49071;0.000;0.000;2022-08-06T15:20:01;101799.94;;;24.48;36.64
62976;BME280;49071;0.000;0.000;2022-08-06T15:23:01;101802.78;;;24.48;36.99
62976;BME280;49071;0.000;0.000;2022-08-06T15:26:02;101798.69;;;24.49;36.86
62976;BME280;49071;0.000;0.000;2022-08-06T15:29:03;101803.38;;;24.53;37.05
62976;BME280;49071;0.000;0.000;2022-08-06T15:32:03;101802.09;;;24.54;37.29
62976;BME280;49071;0.000;0.000;2022-08-06T15:35:04;101804.47;;;24.55;37.16
62976;BME280;49071;0.000;0.000;2022-08-06T15:38:04;101808.53;;;24.54;37.33
62976;BME280;49071;0.000;0.000;2022-08-06T15:41:05;101805.72;;;24.54;37.32
62976;BME280;49071;0.000;0.000;2022-08-06T15:44:06;101806.97;;;24.53;37.53
62976;BME280;49071;0.000;0.000;2022-08-06T15:47:08;101803.38;;;24.53;36.74
62976;BME280;49071;0.000;0.000;2022-08-06T15:50:08;101801.69;;;24.46;36.74
62976;BME280;49071;0.000;0.000;2022-08-06T15:53:09;101798.38;;;24.47;37.10
62976;BME280;49071;0.000;0.000;2022-08-06T15:56:10;101804.84;;;24.39;35.79
62976;BME280;49071;0.000;0.000;2022-08-06T15:59:10;101800.81;;;24.31;35.20
62976;BME280;49071;0.000;0.000;2022-08-06T16:02:10;101804.25;;;24.35;35.46
62976;BME280;49071;0.000;0.000;2022-08-06T16:05:11;101806.47;;;24.31;35.56
62976;BME280;49071;0.000;0.000;2022-08-06T16:08:11;101798.28;;;24.33;34.70
62976;BME280;49071;0.000;0.000;2022-08-06T16:11:12;101799.63;;;24.22;33.94
62976;BME280;49071;0.000;0.000;2022-08-06T16:14:12;101806.34;;;24.25;34.37
62976;BME280;49071;0.000;0.000;2022-08-06T16:17:13;101802.13;;;24.20;33.15
62976;BME280;49071;0.000;0.000;2022-08-06T16:20:13;101800.41;;;24.23;33.67
62976;BME280;49071;0.000;0.000;2022-08-06T16:23:14;101793.63;;;24.30;34.43
62976;BME280;49071;0.000;0.000;2022-08-06T16:26:15;101798.00;;;24.31;33.84
62976;BME280;49071;0.000;0.000;2022-08-06T16:29:19;101795.16;;;24.31;34.00
62976;BME280;49071;0.000;0.000;2022-08-06T16:32:19;101789.53;;;24.31;34.33
62976;BME280;49071;0.000;0.000;2022-08-06T16:35:19;101789.53;;;24.31;34.01
62976;BME280;49071;0.000;0.000;2022-08-06T16:38:20;101795.16;;;24.31;34.23
62976;BME280;49071;0.000;0.000;2022-08-06T16:41:20;101793.81;;;24.26;33.95
62976;BME280;49071;0.000;0.000;2022-08-06T16:44:20;101790.69;;;24.24;32.85
62976;BME280;49071;0.000;0.000;2022-08-06T16:47:20;101807.47;;;24.18;33.17
62976;BME280;49071;0.000;0.000;2022-08-06T16:50:22;101806.81;;;24.23;33.10
62976;BME280;49071;0.000;0.000;2022-08-06T16:53:22;101804.00;;;24.23;32.57
62976;BME280;49071;0.000;0.000;2022-08-06T16:56:23;101813.56;;;24.26;33.09
62976;BME280;49071;0.000;0.000;2022-08-06T16:59:23;101819.56;;;24.19;32.69
62976;BME280;49071;0.000;0.000;2022-08-06T17:02:23;101813.72;;;24.22;32.67
62976;BME280;49071;0.000;0.000;2022-08-06T17:05:38;101815.94;;;24.18;32.23
62976;BME280;49071;0.000;0.000;2022-08-06T17:08:39;101808.75;;;24.17;31.72
62976;BME280;49071;0.000;0.000;2022-08-06T17:11:39;101819.44;;;24.13;31.59
62976;BME280;49071;0.000;0.000;2022-08-06T17:14:39;101817.69;;;24.16;31.34
62976;BME280;49071;0.000;0.000;2022-08-06T17:17:39;101817.84;;;24.21;32.26
62976;BME280;49071;0.000;0.000;2022-08-06T17:20:40;101812.84;;;24.16;31.57
62976;BME280;49071;0.000;0.000;2022-08-06T17:23:41;101809.53;;;24.18;31.86
62976;BME280;49071;0.000;0.000;2022-08-06T17:26:42;101811.09;;;24.19;31.83
62976;BME280;49071;0.000;0.000;2022-08-06T17:29:43;101812.47;;;24.23;32.66
62976;BME280;49071;0.000;0.000;2022-08-06T17:32:44;101809.16;;;24.25;33.10
62976;BME280;49071;0.000;0.000;2022-08-06T17:35:46;101809.94;;;24.25;33.09
62976;BME280;49071;0.000;0.000;2022-08-06T17:38:46;101811.53;;;24.26;33.20
62976;BME280;49071;0.000;0.000;2022-08-06T17:41:46;101815.78;;;24.22;33.33
62976;BME280;49071;0.000;0.000;2022-08-06T17:44:46;101817.53;;;24.19;32.82
62976;BME280;49071;0.000;0.000;2022-08-06T17:47:47;101814.69;;;24.19;32.91
62976;BME280;49071;0.000;0.000;2022-08-06T17:50:47;101824.41;;;24.18;32.62
62976;BME280;49071;0.000;0.000;2022-08-06T17:53:48;101822.88;;;24.17;32.79
62976;BME280;49071;0.000;0.000;2022-08-06T17:56:49;101822.09;;;24.17;32.52
62976;BME280;49071;0.000;0.000;2022-08-06T17:59:50;101830.72;;;24.13;31.89
62976;BME280;49071;0.000;0.000;2022-08-06T18:02:51;101837.13;;;24.14;31.88
62976;BME280;49071;0.000;0.000;2022-08-06T18:05:52;101838.88;;;24.11;31.89
62976;BME280;49071;0.000;0.000;2022-08-06T18:08:52;101841.41;;;24.09;32.11
62976;BME280;49071;0.000;0.000;2022-08-06T18:11:52;101842.50;;;24.12;31.39
62976;BME280;49071;0.000;0.000;2022-08-06T18:14:53;101842.97;;;24.10;31.64
62976;BME280;49071;0.000;0.000;2022-08-06T18:17:53;101850.66;;;24.10;31.48
62976;BME280;49071;0.000;0.000;2022-08-06T18:20:53;101848.97;;;24.03;31.16
62976;BME280;49071;0.000;0.000;2022-08-06T18:23:54;101846.91;;;24.03;31.61
62976;BME280;49071;0.000;0.000;2022-08-06T18:26:54;101850.03;;;24.05;31.60
62976;BME280;49071;0.000;0.000;2022-08-06T18:29:54;101854.91;;;24.05;31.11
62976;BME280;49071;0.000;0.000;2022-08-06T18:32:55;101852.56;;;24.03;31.50
62976;BME280;49071;0.000;0.000;2022-08-06T18:35:55;101850.50;;;24.04;31.14
62976;BME280;49071;0.000;0.000;2022-08-06T18:38:55;101863.25;;;23.99;31.09
62976;BME280;49071;0.000;0.000;2022-08-06T18:41:56;101864.81;;;24.00;31.03
62976;BME280;49071;0.000;0.000;2022-08-06T18:44:56;101864.69;;;23.95;30.97
62976;BME280;49071;0.000;0.000;2022-08-06T18:47:57;101867.78;;;23.97;30.89
62976;BME280;49071;0.000;0.000;2022-08-06T18:50:57;101874.56;;;23.90;30.84
62976;BME280;49071;0.000;0.000;2022-08-06T18:53:58;101875.34;;;23.91;30.73
62976;BME280;49071;0.000;0.000;2022-08-06T18:56:58;101884.28;;;23.89;30.50
62976;BME280;49071;0.000;0.000;2022-08-06T18:59:59;101883.50;;;23.89;30.87
62976;BME280;49071;0.000;0.000;2022-08-06T19:02:59;101889.16;;;23.89;30.59
62976;BME280;49071;0.000;0.000;2022-08-06T19:05:59;101886.03;;;23.87;30.35
62976;BME280;49071;0.000;0.000;2022-08-06T19:09:00;101889.16;;;23.89;30.80
62976;BME280;49071;0.000;0.000;2022-08-06T19:12:04;101891.66;;;23.87;30.57
62976;BME280;49071;0.000;0.000;2022-08-06T19:15:05;101892.63;;;23.83;30.20
62976;BME280;49071;0.000;0.000;2022-08-06T19:18:05;101897.31;;;23.87;30.58
62976;BME280;49071;0.000;0.000;2022-08-06T19:21:06;101899.66;;;23.88;30.35
62976;BME280;49071;0.000;0.000;2022-08-06T19:24:06;101902.16;;;23.86;30.38
62976;BME280;49071;0.000;0.000;2022-08-06T19:27:07;101899.53;;;23.82;30.54
62976;BME280;49071;0.000;0.000;2022-08-06T19:30:07;101906.28;;;23.76;30.06
62976;BME280;49071;0.000;0.000;2022-08-06T19:33:08;101903.59;;;23.81;30.31
62976;BME280;49071;0.000;0.000;2022-08-06T19:36:08;101901.41;;;23.76;30.18
62976;BME280;49071;0.000;0.000;2022-08-06T19:39:09;101895.91;;;23.73;30.06
62976;BME280;49071;0.000;0.000;2022-08-06T19:42:09;101899.53;;;23.73;29.96
62976;BME280;49071;0.000;0.000;2022-08-06T19:45:10;101905.50;;;23.66;29.99
62976;BME280;49071;0.000;0.000;2022-08-06T19:48:10;101909.69;;;23.80;30.05
62976;BME280;49071;0.000;0.000;2022-08-06T19:51:11;101903.75;;;23.69;30.60
62976;BME280;49071;0.000;0.000;2022-08-06T19:54:11;101908.78;;;23.64;30.24
62976;BME280;49071;0.000;0.000;2022-08-06T19:57:11;101908.00;;;23.55;30.58
62976;BME280;49071;0.000;0.000;2022-08-06T20:00:12;101910.19;;;23.51;30.41
62976;BME280;49071;0.000;0.000;2022-08-06T20:03:12;101913.19;;;23.47;30.82
62976;BME280;49071;0.000;0.000;2022-08-06T20:06:13;101918.38;;;23.49;30.47
62976;BME280;49071;0.000;0.000;2022-08-06T20:09:13;101913.97;;;23.48;30.48
62976;BME280;49071;0.000;0.000;2022-08-06T20:12:13;101917.41;;;23.52;30.53
62976;BME280;49071;0.000;0.000;2022-08-06T20:15:15;101916.00;;;23.56;30.74
62976;BME280;49071;0.000;0.000;2022-08-06T20:18:16;101920.25;;;23.52;30.87
62976;BME280;49071;0.000;0.000;2022-08-06T20:21:16;101922.09;;;23.55;31.04
62976;BME280;49071;0.000;0.000;2022-08-06T20:24:17;101927.91;;;23.79;31.23
62976;BME280;49071;0.000;0.000;2022-08-06T20:27:17;101924.91;;;23.64;30.85
62976;BME280;49071;0.000;0.000;2022-08-06T20:30:17;101925.09;;;23.51;30.82
62976;BME280;49071;0.000;0.000;2022-08-06T20:33:18;101935.75;;;23.56;31.20
62976;BME280;49071;0.000;0.000;2022-08-06T20:36:19;101928.38;;;23.59;30.98
62976;BME280;49071;0.000;0.000;2022-08-06T20:39:19;101934.63;;;23.63;31.11
62976;BME280;49071;0.000;0.000;2022-08-06T20:42:19;101942.16;;;23.57;30.88
62976;BME280;49071;0.000;0.000;2022-08-06T20:45:19;101942.94;;;23.57;31.01
62976;BME280;49071;0.000;0.000;2022-08-06T20:48:21;101946.84;;;23.60;31.38
62976;BME280;49071;0.000;0.000;2022-08-06T20:51:21;101939.47;;;23.62;31.39
62976;BME280;49071;0.000;0.000;2022-08-06T20:54:22;101950.75;;;23.62;31.42
62976;BME280;49071;0.000;0.000;2022-08-06T20:57:23;101948.75;;;23.54;31.12
62976;BME280;49071;0.000;0.000;2022-08-06T21:00:23;101950.00;;;23.53;31.39
62976;BME280;49071;0.000;0.000;2022-08-06T21:03:25;101948.75;;;23.45;31.78
62976;BME280;49071;0.000;0.000;2022-08-06T21:06:25;101952.84;;;23.34;31.83
62976;BME280;49071;0.000;0.000;2022-08-06T21:09:26;101962.22;;;23.40;32.10
62976;BME280;49071;0.000;0.000;2022-08-06T21:12:26;101963.94;;;23.38;32.06
62976;BME280;49071;0.000;0.000;2022-08-06T21:15:26;101959.09;;;23.38;32.00
62976;BME280;49071;0.000;0.000;2022-08-06T21:18:26;101960.19;;;23.32;32.04
62976;BME280;49071;0.000;0.000;2022-08-06T21:21:27;101954.38;;;23.35;32.11
62976;BME280;49071;0.000;0.000;2022-08-06T21:24:27;101956.88;;;23.33;32.33
62976;BME280;49071;0.000;0.000;2022-08-06T21:27:27;101965.34;;;23.42;32.17
62976;BME280;49071;0.000;0.000;2022-08-06T21:30:28;101966.44;;;23.36;32.27
62976;BME280;49071;0.000;0.000;2022-08-06T21:33:28;101968.78;;;23.28;32.46
62976;BME280;49071;0.000;0.000;2022-08-06T21:36:28;101971.63;;;23.28;32.56
62976;BME280;49071;0.000;0.000;2022-08-06T21:39:29;101962.53;;;23.24;32.55
62976;BME280;49071;0.000;0.000;2022-08-06T21:42:30;101967.22;;;23.18;32.52
62976;BME280;49071;0.000;0.000;2022-08-06T21:45:30;101971.28;;;23.17;32.51
62976;BME280;49071;0.000;0.000;2022-08-06T21:48:30;101968.00;;;23.18;32.56
62976;BME280;49071;0.000;0.000;2022-08-06T21:51:31;101965.81;;;23.23;32.61
62976;BME280;49071;0.000;0.000;2022-08-06T21:54:31;101965.81;;;23.23;32.50
62976;BME280;49071;0.000;0.000;2022-08-06T21:57:31;101963.94;;;23.10;32.84
62976;BME280;49071;0.000;0.000;2022-08-06T22:03:33;101966.22;;;22.93;32.80
62976;BME280;49071;0.000;0.000;2022-08-06T22:06:33;101958.28;;;23.01;32.92
62976;BME280;49071;0.000;0.000;2022-08-06T22:09:33;101967.53;;;23.11;32.75
62976;BME280;49071;0.000;0.000;2022-08-06T22:12:33;101961.41;;;23.21;32.56
62976;BME280;49071;0.000;0.000;2022-08-06T22:15:34;101961.41;;;23.21;32.66
62976;BME280;49071;0.000;0.000;2022-08-06T22:18:34;101968.47;;;23.17;32.73
62976;BME280;49071;0.000;0.000;2022-08-06T22:21:34;101966.91;;;23.07;32.99
62976;BME280;49071;0.000;0.000;2022-08-06T22:24:35;101974.41;;;23.10;32.92
62976;BME280;49071;0.000;0.000;2022-08-06T22:27:36;101977.09;;;23.13;32.92
62976;BME280;49071;0.000;0.000;2022-08-06T22:30:36;101966.44;;;23.08;33.00
62976;BME280;49071;0.000;0.000;2022-08-06T22:33:36;101965.94;;;23.10;32.74
62976;BME280;49071;0.000;0.000;2022-08-06T22:36:37;101968.16;;;23.06;32.88
62976;BME280;49071;0.000;0.000;2022-08-06T22:39:37;101968.94;;;23.06;32.83
62976;BME280;49071;0.000;0.000;2022-08-06T22:42:37;101965.97;;;23.00;32.86
62976;BME280;49071;0.000;0.000;2022-08-06T22:45:39;101968.16;;;23.06;32.79